Time;durP1;ratioP1;P1;durP2;ratioP2;P2;SDS_P1;SDS_P2;PMS_P1;PMS_P2;Temp;Humidity;BMP_temperature;BMP_pressure;BME280_temperature;BME280_humidity;BME280_pressure;Samples;Min_cycle;Max_cycle;Signal;HPM_P1;HPM_P2
2022/04/07 00:01:56;;;;;;;5.03;2.10;;;;;;;6.52;100.00;98644.19;4970778;28;20186;-46
2022/04/07 00:04:21;;;;;;;4.70;1.80;;;;;;;6.56;100.00;98630.63;4972628;28;20176;-42
2022/04/07 00:06:47;;;;;;;2.67;1.55;;;;;;;6.50;100.00;98617.66;4972714;28;20256;-47
2022/04/07 00:09:12;;;;;;;3.67;1.92;;;;;;;6.39;100.00;98626.25;4972523;28;20189;-42
2022/04/07 00:11:38;;;;;;;3.15;1.20;;;;;;;6.34;100.00;98622.13;4972855;28;20162;-44
2022/04/07 00:14:03;;;;;;;2.10;1.20;;;;;;;6.26;100.00;98617.25;4972323;28;20189;-44
2022/04/07 00:16:29;;;;;;;3.70;1.45;;;;;;;6.21;100.00;98623.75;4972659;28;20194;-45
2022/04/07 00:18:54;;;;;;;3.65;1.20;;;;;;;6.18;100.00;98615.00;4972356;28;20190;-43
2022/04/07 00:21:35;;;;;;;2.47;1.02;;;;;;;6.18;100.00;98607.03;4972103;28;20181;-45
2022/04/07 00:24:04;;;;;;;1.55;1.00;;;;;;;6.20;100.00;98609.63;4972425;28;20274;-43
2022/04/07 00:26:30;;;;;;;1.67;0.80;;;;;;;6.16;100.00;98605.41;4972314;28;20194;-43
2022/04/07 00:28:55;;;;;;;1.60;0.90;;;;;;;6.11;100.00;98597.69;4972380;28;20162;-44
2022/04/07 00:31:21;;;;;;;2.90;1.10;;;;;;;6.18;100.00;98615.00;4970751;28;20711;-44
2022/04/07 00:33:46;;;;;;;3.75;1.15;;;;;;;6.18;100.00;98611.50;4971912;28;20712;-46
2022/04/07 00:36:12;;;;;;;2.80;1.70;;;;;;;6.22;100.00;98607.72;4970968;28;20202;-45
2022/04/07 00:38:37;;;;;;;3.55;1.23;;;;;;;6.11;100.00;98603.00;4972018;28;20252;-46
2022/04/07 00:41:03;;;;;;;3.33;1.20;;;;;;;6.21;100.00;98592.75;4972343;28;20170;-43
2022/04/07 00:43:30;;;;;;;2.47;1.20;;;;;;;6.16;100.00;98592.97;4971707;28;20604;-45
2022/04/07 00:45:56;;;;;;;2.10;1.20;;;;;;;6.11;100.00;98584.41;4971695;28;20729;-45
2022/04/07 00:48:21;;;;;;;4.32;1.55;;;;;;;6.19;100.00;98570.69;4972016;28;20197;-44
2022/04/07 00:50:47;;;;;;;2.35;1.63;;;;;;;6.18;100.00;98576.94;4970705;28;20213;-44
2022/04/07 00:53:12;;;;;;;2.17;1.25;;;;;;;6.18;100.00;98568.97;4970263;28;20174;-44
2022/04/07 00:55:39;;;;;;;2.53;1.58;;;;;;;6.16;100.00;98576.16;4970676;28;20203;-43
2022/04/07 00:58:05;;;;;;;4.75;2.15;;;;;;;6.19;100.00;98568.03;4971417;28;20178;-44
2022/04/07 01:00:31;;;;;;;1.75;1.63;;;;;;;6.22;100.00;98559.03;4971320;28;20644;-42
2022/04/07 01:02:57;;;;;;;2.35;2.05;;;;;;;6.18;100.00;98561.00;4971466;28;20202;-44
2022/04/07 01:05:23;;;;;;;3.28;2.53;;;;;;;6.17;100.00;98559.28;4971547;28;20240;-44
2022/04/07 01:07:49;;;;;;;4.60;3.05;;;;;;;6.22;100.00;98553.72;4970450;28;20672;-43
2022/04/07 01:10:15;;;;;;;6.68;3.47;;;;;;;6.29;100.00;98555.06;4971360;28;20167;-45
2022/04/07 01:12:40;;;;;;;4.55;4.15;;;;;;;6.30;100.00;98544.34;4971378;28;20637;-44
2022/04/07 01:15:07;;;;;;;6.13;4.45;;;;;;;6.35;100.00;98541.41;4971748;28;20174;-43
2022/04/07 01:17:38;;;;;;;5.63;5.13;;;;;;;6.32;100.00;98533.59;4970997;28;20265;-44
2022/04/07 01:20:06;;;;;;;5.50;5.00;;;;;;;6.34;100.00;98526.38;4970611;28;20185;-44
2022/04/07 01:22:35;;;;;;;6.55;5.30;;;;;;;6.37;100.00;98521.75;4970992;28;20186;-44
2022/04/07 01:25:00;;;;;;;6.53;5.90;;;;;;;6.43;100.00;98525.88;4970751;28;20190;-43
2022/04/07 01:27:27;;;;;;;7.38;5.97;;;;;;;6.43;100.00;98523.22;4970168;28;20285;-45
2022/04/07 01:29:52;;;;;;;8.20;6.40;;;;;;;6.47;100.00;98532.75;4969796;28;20796;-45
2022/04/07 01:32:37;;;;;;;7.20;6.13;;;;;;;6.50;100.00;98513.94;4971199;28;20181;-44
2022/04/07 01:35:04;;;;;;;6.75;6.00;;;;;;;6.46;100.00;98500.91;4971341;28;20256;-45
2022/04/07 01:37:30;;;;;;;8.60;5.88;;;;;;;6.46;100.00;98496.44;4971150;28;20194;-43
2022/04/07 01:39:57;;;;;;;6.45;5.70;;;;;;;6.46;100.00;98488.44;4971448;28;20170;-43
2022/04/07 01:42:23;;;;;;;7.90;5.63;;;;;;;6.47;100.00;98497.28;4956510;28;20725;-43
2022/04/07 01:44:52;;;;;;;6.72;6.00;;;;;;;6.42;100.00;98494.88;4965099;28;20273;-45
2022/04/07 01:47:20;;;;;;;10.85;5.95;;;;;;;6.42;100.00;98488.72;4970796;28;20217;-46
2022/04/07 01:50:02;;;;;;;5.07;4.68;;;;;;;6.38;100.00;98482.72;4970764;28;20653;-44
2022/04/07 01:52:29;;;;;;;6.03;4.55;;;;;;;6.38;100.00;98480.94;4970637;28;20261;-44
2022/04/07 01:54:57;;;;;;;5.47;4.68;;;;;;;6.36;100.00;98479.28;4969637;28;20201;-44
2022/04/07 01:57:23;;;;;;;5.13;4.65;;;;;;;6.36;100.00;98472.19;4969628;28;20231;-45
2022/04/07 01:59:52;;;;;;;5.57;4.80;;;;;;;6.38;100.00;98470.31;4970273;28;20233;-45
2022/04/07 02:02:18;;;;;;;7.38;4.90;;;;;;;6.34;100.00;98454.59;4970811;28;20198;-44
2022/04/07 02:04:58;;;;;;;6.97;5.30;;;;;;;6.32;100.00;98453.81;4970349;28;20197;-44
2022/04/07 02:07:32;;;;;;;5.97;5.13;;;;;;;6.35;100.00;98438.56;4969578;28;20743;-44
2022/04/07 02:09:59;;;;;;;6.45;5.32;;;;;;;6.34;100.00;98438.63;4971033;28;20177;-44
2022/04/07 02:12:25;;;;;;;7.32;5.68;;;;;;;6.34;100.00;98436.84;4970520;28;20209;-43
2022/04/07 02:14:51;;;;;;;7.30;5.97;;;;;;;6.31;100.00;98425.53;4969894;28;20265;-44
2022/04/07 02:17:20;;;;;;;9.52;7.40;;;;;;;6.39;100.00;98420.63;4970813;28;20278;-44
2022/04/07 02:19:57;;;;;;;9.05;7.78;;;;;;;6.39;100.00;98415.31;4969882;28;20235;-42
2022/04/07 02:22:22;;;;;;;10.38;7.88;;;;;;;6.42;100.00;98407.13;4969290;28;20194;-44
2022/04/07 02:24:48;;;;;;;9.88;8.50;;;;;;;6.44;100.00;98405.22;4969743;28;20197;-44
2022/04/07 02:27:15;;;;;;;9.55;8.75;;;;;;;6.49;100.00;98397.81;4971170;28;20711;-44
2022/04/07 02:29:42;;;;;;;10.68;9.63;;;;;;;6.49;100.00;98400.47;4970715;28;20174;-45
2022/04/07 02:32:09;;;;;;;9.93;9.02;;;;;;;6.54;100.00;98403.72;4970791;28;20217;-44
2022/04/07 02:34:35;;;;;;;10.40;9.40;;;;;;;6.62;100.00;98389.09;4970352;28;20182;-44
2022/04/07 02:37:01;;;;;;;11.90;10.60;;;;;;;6.58;100.00;98389.31;4972171;28;20216;-45
2022/04/07 02:39:27;;;;;;;12.25;11.00;;;;;;;6.65;100.00;98370.28;4973981;28;20178;-43
2022/04/07 02:41:53;;;;;;;12.40;11.10;;;;;;;6.67;100.00;98365.72;4973522;28;20268;-46
2022/04/07 02:44:19;;;;;;;11.98;10.85;;;;;;;6.68;100.00;98372.75;4974571;28;20177;-44
2022/04/07 02:46:45;;;;;;;12.07;10.88;;;;;;;6.66;100.00;98353.38;4973934;28;20202;-45
2022/04/07 02:49:11;;;;;;;12.82;11.48;;;;;;;6.71;100.00;98357.47;4974130;28;20240;-45
2022/04/07 02:51:36;;;;;;;13.75;12.35;;;;;;;6.69;100.00;98338.09;4972852;28;20532;-44
2022/04/07 02:54:02;;;;;;;14.07;12.55;;;;;;;6.72;100.00;98337.03;4973383;28;20197;-44
2022/04/07 02:56:28;;;;;;;14.02;12.68;;;;;;;6.76;100.00;98333.22;4974219;28;20206;-44
2022/04/07 02:58:57;;;;;;;14.27;12.88;;;;;;;6.79;100.00;98336.53;4973720;28;20186;-43
2022/04/07 03:01:23;;;;;;;15.55;13.27;;;;;;;6.82;100.00;98338.16;4973809;28;20166;-44
2022/04/07 03:03:49;;;;;;;14.00;12.52;;;;;;;6.90;100.00;98325.22;4972482;28;20201;-43
2022/04/07 03:06:15;;;;;;;15.27;13.65;;;;;;;6.89;100.00;98334.16;4973607;28;20194;-44
2022/04/07 03:08:41;;;;;;;15.55;14.00;;;;;;;6.92;100.00;98323.31;4972765;28;20174;-43
2022/04/07 03:11:08;;;;;;;15.10;13.80;;;;;;;6.96;100.00;98316.00;4974102;28;20174;-42
2022/04/07 03:13:33;;;;;;;15.77;14.32;;;;;;;6.97;100.00;98315.03;4973470;28;20177;-44
2022/04/07 03:15:59;;;;;;;15.90;14.30;;;;;;;6.97;100.00;98307.91;4973880;28;20189;-43
2022/04/07 03:18:25;;;;;;;16.77;13.82;;;;;;;7.00;100.00;98310.38;4973402;28;20197;-44
2022/04/07 03:20:51;;;;;;;15.48;13.75;;;;;;;6.98;100.00;98296.31;4973707;28;20178;-42
2022/04/07 03:23:16;;;;;;;15.75;13.93;;;;;;;7.04;100.00;98292.41;4973016;28;20218;-42
2022/04/07 03:25:41;;;;;;;15.15;13.68;;;;;;;7.04;100.00;98295.06;4966967;28;20194;-43
2022/04/07 03:28:07;;;;;;;15.70;14.23;;;;;;;7.04;100.00;98292.41;4972441;28;20277;-42
2022/04/07 03:30:32;;;;;;;14.20;12.80;;;;;;;7.05;100.00;98288.78;4948771;28;20167;-44
2022/04/07 03:32:58;;;;;;;14.32;12.85;;;;;;;7.07;100.00;98280.69;4972129;28;20184;-44
2022/04/07 03:35:24;;;;;;;15.15;13.60;;;;;;;7.10;100.00;98277.81;4971848;28;20554;-43
2022/04/07 03:37:50;;;;;;;15.38;12.77;;;;;;;7.15;100.00;98273.94;4973158;28;20252;-43
2022/04/07 03:40:16;;;;;;;16.70;12.23;;;;;;;7.09;100.00;98262.81;4973327;28;20174;-43
2022/04/07 03:42:41;;;;;;;16.90;12.93;;;;;;;7.07;100.00;98264.72;4962735;28;20245;-44
2022/04/07 03:45:07;;;;;;;13.48;12.07;;;;;;;7.10;100.00;98248.53;4973259;28;20285;-44
2022/04/07 03:47:32;;;;;;;12.80;11.57;;;;;;;7.14;100.00;98247.38;4972692;28;20194;-45
2022/04/07 03:49:57;;;;;;;14.20;11.57;;;;;;;7.10;100.00;98238.75;4972845;28;20634;-44
2022/04/07 03:52:23;;;;;;;13.10;11.90;;;;;;;7.09;100.00;98234.38;4973325;28;20213;-45
2022/04/07 03:54:49;;;;;;;12.75;11.15;;;;;;;7.09;100.00;98233.53;4970801;28;20199;-45
2022/04/07 03:57:15;;;;;;;14.45;11.40;;;;;;;7.10;100.00;98233.41;4972732;28;20281;-43
2022/04/07 03:59:42;;;;;;;12.38;11.18;;;;;;;7.10;100.00;98235.22;4972975;28;20182;-45
2022/04/07 04:02:10;;;;;;;12.20;11.00;;;;;;;7.10;100.00;98221.91;4972614;28;20194;-44
2022/04/07 04:04:35;;;;;;;11.02;10.13;;;;;;;7.11;100.00;98213.84;4972905;28;20601;-44
2022/04/07 04:07:01;;;;;;;11.63;10.35;;;;;;;7.09;100.00;98209.56;4972723;28;20233;-44
2022/04/07 04:09:26;;;;;;;11.10;9.88;;;;;;;7.13;100.00;98208.41;4972461;28;20185;-42
2022/04/07 04:11:52;;;;;;;12.02;10.23;;;;;;;7.16;100.00;98202.88;4972481;28;20178;-43
2022/04/07 04:14:18;;;;;;;10.55;9.55;;;;;;;7.12;100.00;98199.56;4972393;28;20700;-44
2022/04/07 04:16:44;;;;;;;11.98;9.05;;;;;;;7.10;100.00;98198.81;4971267;28;20325;-43
2022/04/07 04:19:10;;;;;;;12.02;9.30;;;;;;;7.12;100.00;98196.03;4971815;28;20186;-43
2022/04/07 04:21:36;;;;;;;9.57;8.63;;;;;;;7.09;100.00;98189.13;4970678;28;20178;-43
2022/04/07 04:24:02;;;;;;;8.82;7.78;;;;;;;7.13;100.00;98195.97;4971496;28;20661;-45
2022/04/07 04:26:28;;;;;;;8.30;7.50;;;;;;;7.13;100.00;98184.47;4970418;28;20301;-43
2022/04/07 04:28:53;;;;;;;7.45;6.70;;;;;;;7.13;100.00;98179.13;4971778;28;20248;-42
2022/04/07 04:31:20;;;;;;;8.32;7.43;;;;;;;7.09;100.00;98175.81;4971930;28;20697;-44
2022/04/07 04:33:46;;;;;;;7.47;6.65;;;;;;;7.15;100.00;98166.53;4971401;28;20254;-44
2022/04/07 04:36:11;;;;;;;8.05;6.10;;;;;;;7.07;100.00;98156.41;4971822;28;20208;-44
2022/04/07 04:38:37;;;;;;;6.40;5.70;;;;;;;7.05;100.00;98162.81;4971442;28;20174;-41
2022/04/07 04:41:02;;;;;;;7.60;5.10;;;;;;;7.07;100.00;98168.88;4971903;28;20761;-42
2022/04/07 04:43:28;;;;;;;6.75;5.03;;;;;;;7.06;100.00;98156.50;4971302;28;20739;-44
2022/04/07 04:45:53;;;;;;;5.57;4.65;;;;;;;7.01;100.00;98157.66;4971380;28;20665;-43
2022/04/07 04:48:18;;;;;;;5.13;4.63;;;;;;;7.00;100.00;98150.66;4971553;28;20188;-44
2022/04/07 04:50:44;;;;;;;4.10;3.70;;;;;;;7.04;100.00;98156.63;4970933;28;20280;-44
2022/04/07 04:53:09;;;;;;;3.92;3.53;;;;;;;7.00;100.00;98145.34;4971286;28;20647;-42
2022/04/07 04:55:35;;;;;;;4.63;3.30;;;;;;;6.92;100.00;98144.97;4969762;28;20193;-43
2022/04/07 04:58:00;;;;;;;3.55;2.88;;;;;;;6.91;100.00;98147.72;4971323;28;20606;-42
2022/04/07 05:00:26;;;;;;;2.67;2.47;;;;;;;6.90;100.00;98125.59;4970514;28;20197;-44
2022/04/07 05:02:51;;;;;;;2.50;2.30;;;;;;;6.86;100.00;98123.25;4970573;28;20249;-45
2022/04/07 05:05:17;;;;;;;2.33;1.98;;;;;;;6.83;100.00;98118.97;4971348;28;20750;-42
2022/04/07 05:07:42;;;;;;;6.35;1.80;;;;;;;6.79;100.00;98104.16;4969695;28;20202;-44
2022/04/07 05:10:08;;;;;;;2.08;1.80;;;;;;;6.76;100.00;98105.22;4969937;28;20185;-42
2022/04/07 05:12:34;;;;;;;1.58;1.40;;;;;;;6.77;100.00;98090.13;4970945;28;20202;-45
2022/04/07 05:14:59;;;;;;;4.85;1.67;;;;;;;6.85;100.00;98090.47;4970904;28;20193;-43
2022/04/07 05:17:24;;;;;;;2.38;1.40;;;;;;;6.77;100.00;98101.59;4971071;28;20194;-43
2022/04/07 05:19:50;;;;;;;1.77;1.40;;;;;;;6.77;100.00;98090.13;4971016;28;20244;-46
2022/04/07 05:22:16;;;;;;;2.47;1.73;;;;;;;6.80;100.00;98080.13;4970891;28;20289;-44
2022/04/07 05:24:41;;;;;;;1.67;1.45;;;;;;;6.85;100.00;98068.31;4971170;28;20170;-44
2022/04/07 05:27:06;;;;;;;2.15;1.30;;;;;;;6.93;100.00;98080.16;4986129;28;20300;-44
2022/04/07 05:29:32;;;;;;;3.22;1.30;;;;;;;6.98;100.00;98075.38;4969838;28;20527;-43
2022/04/07 05:31:57;;;;;;;3.00;1.33;;;;;;;6.94;100.00;98070.34;4970080;28;20181;-45
2022/04/07 05:34:22;;;;;;;2.25;1.50;;;;;;;6.96;100.00;98060.47;4969258;28;20228;-42
2022/04/07 05:36:48;;;;;;;1.45;1.20;;;;;;;6.98;100.00;98062.06;4969730;28;20201;-44
2022/04/07 05:39:13;;;;;;;4.97;2.42;;;;;;;6.97;100.00;98054.16;4985883;28;20536;-43
2022/04/07 05:41:40;;;;;;;2.35;1.40;;;;;;;6.92;100.00;98049.16;4970826;28;20532;-42
2022/04/07 05:44:05;;;;;;;3.13;1.42;;;;;;;7.03;100.00;98055.56;4970302;28;20340;-43
2022/04/07 05:46:31;;;;;;;3.50;1.35;;;;;;;7.01;100.00;98055.66;4970777;28;20292;-43
2022/04/07 05:48:56;;;;;;;1.50;1.30;;;;;;;7.01;100.00;98037.88;4970588;28;20178;-44
2022/04/07 05:51:22;;;;;;;1.73;1.40;;;;;;;7.03;100.00;98037.78;4970994;28;20644;-43
2022/04/07 05:53:47;;;;;;;1.50;1.40;;;;;;;7.10;100.00;98033.72;4970627;28;20174;-44
2022/04/07 05:56:13;;;;;;;2.33;1.10;;;;;;;7.13;100.00;98041.53;4970845;28;20206;-44
2022/04/07 05:58:38;;;;;;;2.90;1.40;;;;;;;7.16;100.00;98024.47;4970656;28;20174;-43
2022/04/07 06:01:04;;;;;;;2.47;1.40;;;;;;;7.08;100.00;98025.00;4970768;28;20170;-44
2022/04/07 06:03:31;;;;;;;3.20;1.45;;;;;;;7.13;100.00;98022.88;4969064;28;20696;-42
2022/04/07 06:05:58;;;;;;;6.40;1.70;;;;;;;7.06;100.00;98012.75;4970768;28;20193;-42
2022/04/07 06:08:23;;;;;;;2.42;1.60;;;;;;;7.03;100.00;98005.84;4970620;28;20174;-45
2022/04/07 06:10:48;;;;;;;2.53;1.40;;;;;;;7.03;100.00;98002.34;4971394;28;20186;-45
2022/04/07 06:13:14;;;;;;;3.20;1.60;;;;;;;7.06;100.00;97988.78;4974670;28;20253;-44
2022/04/07 06:15:40;;;;;;;2.05;1.88;;;;;;;7.09;100.00;97984.13;4972748;28;20185;-45
2022/04/07 06:18:06;;;;;;;2.13;1.77;;;;;;;7.17;100.00;97975.59;4972618;28;20189;-42
2022/04/07 06:20:32;;;;;;;4.05;2.40;;;;;;;7.17;100.00;97971.13;4974152;28;20578;-49
2022/04/07 06:22:57;;;;;;;4.57;2.30;;;;;;;7.23;100.00;97968.00;4973810;28;20229;-47
2022/04/07 06:25:23;;;;;;;4.78;2.65;;;;;;;7.24;100.00;97955.56;4973937;28;20217;-46
2022/04/07 06:27:48;;;;;;;3.85;3.42;;;;;;;7.19;100.00;97958.56;4974071;28;20655;-48
2022/04/07 06:30:16;;;;;;;4.03;3.60;;;;;;;7.19;100.00;97936.38;4972574;28;20174;-46
2022/04/07 06:32:42;;;;;;;3.80;3.35;;;;;;;7.10;100.00;97929.06;4972560;28;20273;-45
2022/04/07 06:35:09;;;;;;;7.90;4.13;;;;;;;7.13;100.00;97929.69;4973905;28;20691;-49
2022/04/07 06:37:53;;;;;;;4.82;4.30;;;;;;;7.42;100.00;97930.28;4974169;28;20256;-48
2022/04/07 06:40:21;;;;;;;6.78;4.88;;;;;;;7.50;100.00;97924.41;4971432;28;20244;-48
2022/04/07 06:42:50;;;;;;;7.05;4.78;;;;;;;7.67;100.00;97930.31;4973130;28;20415;-48
2022/04/07 06:45:16;;;;;;;6.32;4.65;;;;;;;7.88;100.00;97904.75;4973856;28;20540;-49
2022/04/07 06:47:42;;;;;;;5.38;4.20;;;;;;;8.21;100.00;97903.19;4973975;28;20198;-47
2022/04/07 06:50:13;;;;;;;5.68;3.78;;;;;;;8.07;100.00;97895.38;4971207;28;20198;-47
2022/04/07 06:52:40;;;;;;;3.88;3.58;;;;;;;7.96;100.00;97893.50;4971550;28;20214;-47
2022/04/07 06:55:07;;;;;;;4.65;3.83;;;;;;;7.88;100.00;97880.75;4971520;28;20663;-48
2022/04/07 06:57:49;;;;;;;4.43;3.38;;;;;;;7.81;100.00;97882.19;4973430;28;20275;-48
2022/04/07 07:00:15;;;;;;;4.93;3.45;;;;;;;7.74;100.00;97879.13;4973642;28;20166;-46
2022/04/07 07:02:40;;;;;;;4.97;3.03;;;;;;;7.79;100.00;97870.78;4972632;28;20281;-47
2022/04/07 07:05:06;;;;;;;7.78;3.85;;;;;;;7.71;100.00;97855.34;4973571;28;20383;-49
2022/04/07 07:07:31;;;;;;;5.47;3.17;;;;;;;7.74;100.00;97847.16;4973473;28;20627;-48
2022/04/07 07:09:57;;;;;;;7.85;2.85;;;;;;;7.69;100.00;97848.44;4973284;28;20186;-47
2022/04/07 07:12:22;;;;;;;6.07;3.10;;;;;;;7.71;100.00;97831.38;4973206;28;20614;-46
2022/04/07 07:14:48;;;;;;;7.15;3.05;;;;;;;7.77;100.00;97833.59;4972438;28;20178;-47
2022/04/07 07:17:13;;;;;;;7.22;2.60;;;;;;;7.84;100.00;97826.81;4970879;28;20234;-48
2022/04/07 07:19:39;;;;;;;6.13;2.75;;;;;;;7.81;100.00;97821.72;4971601;28;20208;-47
2022/04/07 07:22:04;;;;;;;4.97;2.58;;;;;;;7.82;99.92;97822.56;4970712;28;20174;-48
2022/04/07 07:24:30;;;;;;;5.15;2.22;;;;;;;7.87;99.88;97827.56;4971090;28;20248;-48
2022/04/07 07:26:55;;;;;;;4.60;2.20;;;;;;;7.87;99.84;97815.09;4971935;28;20329;-45
2022/04/07 07:29:21;;;;;;;3.30;1.80;;;;;;;7.84;99.67;97800.16;4971846;28;20214;-46
2022/04/07 07:31:46;;;;;;;3.38;1.83;;;;;;;7.76;100.00;97815.03;4971248;28;20701;-47
2022/04/07 07:34:11;;;;;;;3.17;1.95;;;;;;;7.84;99.90;97786.84;4971399;28;20277;-46
2022/04/07 07:36:37;;;;;;;3.15;1.88;;;;;;;7.81;99.70;97789.75;4971850;28;20194;-47
2022/04/07 07:39:02;;;;;;;4.28;1.90;;;;;;;7.83;99.86;97786.97;4971321;28;20278;-48
2022/04/07 07:41:28;;;;;;;3.97;1.95;;;;;;;7.82;100.00;97786.09;4971955;28;20849;-46
2022/04/07 07:43:53;;;;;;;2.97;2.10;;;;;;;7.88;100.00;97770.63;4970236;28;20208;-47
2022/04/07 07:46:20;;;;;;;3.20;2.20;;;;;;;7.83;100.00;97766.50;4972022;28;20198;-47
2022/04/07 07:48:46;;;;;;;2.55;1.98;;;;;;;7.85;100.00;97771.72;4972730;28;20663;-47
2022/04/07 07:51:11;;;;;;;6.20;3.95;;;;;;;7.81;100.00;97762.25;4972689;28;20186;-47
2022/04/07 07:53:37;;;;;;;3.35;2.67;;;;;;;7.74;100.00;97761.00;4972444;28;20186;-46
2022/04/07 07:56:03;;;;;;;6.50;3.28;;;;;;;7.69;100.00;97752.53;4972046;28;20669;-47
2022/04/07 07:58:28;;;;;;;4.55;2.85;;;;;;;7.60;100.00;97740.75;4972638;28;20593;-48
2022/04/07 08:00:55;;;;;;;10.13;3.72;;;;;;;7.58;100.00;97734.69;4972773;28;20169;-49
2022/04/07 08:03:21;;;;;;;3.20;2.80;;;;;;;7.54;100.00;97722.56;4971795;28;20631;-48
2022/04/07 08:05:46;;;;;;;4.78;3.20;;;;;;;7.47;100.00;97727.50;4970476;28;20190;-47
2022/04/07 08:08:12;;;;;;;8.45;3.78;;;;;;;7.37;100.00;97727.34;4972480;28;20517;-47
2022/04/07 08:10:37;;;;;;;6.45;3.60;;;;;;;7.38;100.00;97737.03;4972001;28;20190;-48
2022/04/07 08:13:03;;;;;;;7.63;4.35;;;;;;;7.27;100.00;97725.47;4971020;28;20242;-48
2022/04/07 08:15:29;;;;;;;7.60;3.35;;;;;;;7.24;100.00;97729.22;4971673;28;20657;-48
2022/04/07 08:17:54;;;;;;;7.85;3.40;;;;;;;7.26;100.00;97734.41;4972713;28;20198;-47
2022/04/07 08:20:19;;;;;;;7.03;3.58;;;;;;;7.14;100.00;97729.06;4972018;28;20170;-48
2022/04/07 08:22:45;;;;;;;7.15;3.58;;;;;;;7.13;100.00;97746.00;4969608;28;20202;-46
2022/04/07 08:25:10;;;;;;;7.57;3.15;;;;;;;6.96;100.00;97727.75;4969018;28;20642;-47
2022/04/07 08:27:36;;;;;;;7.60;3.15;;;;;;;6.97;100.00;97734.75;4967554;28;20208;-49
2022/04/07 08:30:02;;;;;;;9.45;3.13;;;;;;;6.94;100.00;97724.34;4968685;28;20336;-47
2022/04/07 08:32:31;;;;;;;6.35;3.15;;;;;;;6.90;100.00;97717.56;4969646;28;20182;-48
2022/04/07 08:34:58;;;;;;;6.40;2.47;;;;;;;6.85;100.00;97730.34;4970974;28;20189;-48
2022/04/07 08:37:24;;;;;;;4.60;2.10;;;;;;;6.76;100.00;97723.91;4971032;28;20280;-49
2022/04/07 08:39:52;;;;;;;9.13;2.05;;;;;;;6.87;100.00;97723.13;4970460;28;20193;-46
2022/04/07 08:42:23;;;;;;;4.60;1.73;;;;;;;6.65;100.00;97731.78;4968691;28;20232;-47
2022/04/07 08:44:48;;;;;;;3.33;1.20;;;;;;;6.34;100.00;97724.19;4970736;28;20269;-48
2022/04/07 08:47:20;;;;;;;0.70;0.70;;;;;;;6.37;100.00;97713.34;4970179;28;20727;-47
2022/04/07 08:49:48;;;;;;;6.00;1.08;;;;;;;6.18;100.00;97684.53;4970063;28;20215;-50
2022/04/07 08:52:14;;;;;;;2.67;0.90;;;;;;;6.11;100.00;97685.94;4969776;28;20166;-49
2022/04/07 08:54:40;;;;;;;1.80;0.88;;;;;;;6.12;100.00;97695.63;4970218;28;20178;-47
2022/04/07 08:57:06;;;;;;;4.13;0.82;;;;;;;6.05;100.00;97689.03;4970779;28;20273;-51
2022/04/07 08:59:32;;;;;;;3.78;1.00;;;;;;;6.02;100.00;97707.84;4970396;28;20523;-48
2022/04/07 09:02:05;;;;;;;6.35;0.88;;;;;;;5.88;100.00;97697.28;4971089;28;20268;-48
2022/04/07 09:04:31;;;;;;;3.33;1.08;;;;;;;5.88;100.00;97703.47;4971268;28;20522;-47
2022/04/07 09:06:58;;;;;;;5.18;1.08;;;;;;;5.80;100.00;97721.75;4971703;28;20198;-49
2022/04/07 09:09:24;;;;;;;4.45;1.00;;;;;;;5.52;100.00;97722.78;4970397;28;20186;-48
2022/04/07 09:11:56;;;;;;;3.83;0.80;;;;;;;5.63;100.00;97736.16;4970875;28;20170;-46
2022/04/07 09:14:22;;;;;;;1.38;0.70;;;;;;;5.48;100.00;97735.41;4969269;28;20166;-47
2022/04/07 09:16:54;;;;;;;2.28;0.90;;;;;;;5.32;100.00;97745.34;4970156;28;20696;-47
2022/04/07 09:19:21;;;;;;;1.27;0.50;;;;;;;5.29;100.00;97743.75;4969705;28;20197;-50
2022/04/07 09:21:46;;;;;;;1.45;0.30;;;;;;;5.20;100.00;97725.75;4970264;28;20477;-49
2022/04/07 09:24:12;;;;;;;2.50;0.45;;;;;;;4.94;100.00;97733.66;4969722;28;20214;-46
2022/04/07 09:26:43;;;;;;;0.40;0.40;;;;;;;4.89;100.00;97709.22;4970304;28;20193;-46
2022/04/07 09:29:13;;;;;;;7.95;0.50;;;;;;;4.97;100.00;97689.31;4970581;28;20162;-48
2022/04/07 09:31:49;;;;;;;1.88;0.60;;;;;;;4.93;100.00;97672.72;4970495;28;20163;-48
2022/04/07 09:34:15;;;;;;;1.05;0.20;;;;;;;4.94;100.00;97669.97;4969470;28;20169;-47
2022/04/07 09:36:40;;;;;;;1.48;0.30;;;;;;;5.06;100.00;97654.19;4969181;28;20197;-47
2022/04/07 09:39:06;;;;;;;0.40;0.40;;;;;;;5.06;100.00;97657.69;4969888;28;20177;-47
2022/04/07 09:41:32;;;;;;;0.50;0.43;;;;;;;5.09;100.00;97661.94;4968241;28;20577;-46
2022/04/07 09:43:59;;;;;;;1.17;0.40;;;;;;;5.02;100.00;97661.50;4967408;28;20645;-48
2022/04/07 09:46:38;;;;;;;1.00;0.82;;;;;;;4.98;100.00;97665.31;4966935;28;20212;-48
2022/04/07 09:49:09;;;;;;;3.17;0.50;;;;;;;4.95;100.00;97663.72;4968475;28;20262;-47
2022/04/07 09:51:40;;;;;;;1.25;0.52;;;;;;;4.94;100.00;97663.81;4968246;28;20205;-48
2022/04/07 09:54:10;;;;;;;1.55;0.50;;;;;;;4.93;100.00;97668.28;4967132;28;20182;-48
2022/04/07 09:56:36;;;;;;;1.70;0.63;;;;;;;4.93;100.00;97664.78;4969795;28;20677;-47
2022/04/07 09:59:05;;;;;;;2.85;0.60;;;;;;;4.94;100.00;97656.72;4969808;28;20174;-48
2022/04/07 10:01:32;;;;;;;3.50;0.60;;;;;;;5.05;100.00;97639.22;4970328;28;20280;-47
2022/04/07 10:03:58;;;;;;;1.63;0.60;;;;;;;5.00;100.00;97655.44;4969290;28;20190;-49
2022/04/07 10:06:24;;;;;;;1.08;0.50;;;;;;;5.04;100.00;97640.19;4970755;28;20234;-49
2022/04/07 10:08:50;;;;;;;1.20;0.55;;;;;;;5.02;100.00;97642.09;4970713;28;20177;-49
2022/04/07 10:11:17;;;;;;;2.33;0.60;;;;;;;5.03;100.00;97634.03;4971043;28;20162;-49
2022/04/07 10:13:46;;;;;;;1.10;0.70;;;;;;;5.12;100.00;97629.91;4970719;28;20539;-47
2022/04/07 10:16:15;;;;;;;2.90;0.80;;;;;;;5.20;100.00;97637.34;4970871;28;20202;-48
2022/04/07 10:18:54;;;;;;;3.85;0.80;;;;;;;5.18;100.00;97628.63;4970803;28;20186;-48
2022/04/07 10:21:44;;;;;;;2.30;0.70;;;;;;;5.21;100.00;97580.66;4970731;28;20609;-49
2022/04/07 10:24:31;;;;;;;3.22;0.80;;;;;;;5.25;100.00;97582.16;4970469;28;20727;-50
2022/04/07 10:27:00;;;;;;;1.17;0.50;;;;;;;5.35;100.00;97613.25;4970677;28;20615;-48
2022/04/07 10:29:25;;;;;;;1.52;0.82;;;;;;;5.32;100.00;97618.78;4970660;28;20186;-47
2022/04/07 10:32:19;;;;;;;1.35;0.80;;;;;;;5.23;100.00;97603.50;4970615;28;20186;-47
2022/04/07 10:34:58;;;;;;;2.03;0.80;;;;;;;5.39;100.00;97608.59;4970558;28;20208;-50
2022/04/07 10:37:44;;;;;;;1.95;0.70;;;;;;;5.32;100.00;97634.72;4970448;28;20272;-47
2022/04/07 10:40:32;;;;;;;1.55;0.80;;;;;;;5.32;100.00;97616.13;4970475;28;20220;-48
2022/04/07 10:43:11;;;;;;;2.78;1.30;;;;;;;5.23;100.00;97595.53;4968915;28;20585;-49
2022/04/07 10:45:50;;;;;;;4.22;1.00;;;;;;;5.33;100.00;97585.94;4970453;28;20182;-47
2022/04/07 10:48:16;;;;;;;4.25;0.93;;;;;;;5.36;100.00;97596.38;4970711;28;20253;-47
2022/04/07 10:51:08;;;;;;;2.28;0.90;;;;;;;5.37;100.00;97594.56;4970318;28;20166;-47
2022/04/07 10:53:53;;;;;;;2.67;1.00;;;;;;;5.29;100.00;97595.09;4970447;28;20158;-49
2022/04/07 10:56:34;;;;;;;4.07;1.10;;;;;;;5.30;100.00;97590.66;4969484;28;20248;-49
2022/04/07 10:59:24;;;;;;;1.95;0.95;;;;;;;5.36;100.00;97576.97;4972277;28;20656;-55
2022/04/07 11:02:00;;;;;;;2.63;0.85;;;;;;;5.35;100.00;97583.19;4987580;28;20193;-48
2022/04/07 11:04:25;;;;;;;2.10;1.05;;;;;;;5.44;100.00;97571.09;4971864;28;20537;-49
2022/04/07 11:09:46;;;;;;;3.13;1.50;;;;;;;5.81;100.00;97571.16;4972189;28;20201;-48
2022/04/07 11:12:18;;;;;;;3.20;1.05;;;;;;;6.01;100.00;97565.28;4972551;28;20235;-49
2022/04/07 11:14:48;;;;;;;2.53;1.27;;;;;;;6.14;100.00;97567.91;4971784;28;20189;-50
2022/04/07 11:17:21;;;;;;;3.85;1.23;;;;;;;6.25;100.00;97569.78;4973419;28;20708;-48
2022/04/07 11:20:15;;;;;;;2.13;0.90;;;;;;;6.22;100.00;97572.69;4972878;28;20265;-50
2022/04/07 11:22:54;;;;;;;2.30;0.88;;;;;;;6.60;100.00;97570.72;4973257;28;20194;-49
2022/04/07 11:25:33;;;;;;;2.03;1.00;;;;;;;6.83;100.00;97581.44;4973108;28;20189;-50
2022/04/07 11:28:15;;;;;;;3.38;1.10;;;;;;;6.84;100.00;97564.50;4973577;28;20181;-49
2022/04/07 11:30:44;;;;;;;4.78;1.20;;;;;;;6.78;99.59;97567.66;4973045;28;20957;-49
2022/04/07 11:33:20;;;;;;;3.55;1.17;;;;;;;6.89;99.16;97565.03;4973059;28;20163;-49
2022/04/07 11:36:02;;;;;;;3.97;1.30;;;;;;;6.75;98.24;97573.19;4971683;28;20257;-50
2022/04/07 11:38:28;;;;;;;3.58;1.30;;;;;;;6.98;97.43;97571.47;4973237;28;20205;-49